• Join FlightAware (Why Join?)
  • Login
  • US Flag 
02:15PM EDT


 

Airport Tracker/Info


-or-


 

Live Flight TrackerFlight Track Log ✈ SWA706 ✈ 22-Jun-2013 ✈ KMDW - KRNO

Flight Track Log - Related Links

Times and Time Zones

All times are in EDT time to prevent confusion due to time zone crossing. See the SWA706 flight status page for this flight to view local times or setup timezone preferences in your user account.

Time Position Orientation Groundspeed Altitude Reporting Facility
EDT Latitude Longitude Course Direction KTS MPH feet Rate Location/Type
07:29PM 41.7500 -87.8000 270° West 185 213 2,700  Level Chicago TRACON
07:30PM 41.7500 -87.8833 270° West 218 251 4,500 2,220 Climbing Chicago TRACON
07:31PM 41.7500 -87.9833 270° West 268 308 7,200 2,760 Climbing Chicago TRACON
07:32PM 41.7817 -88.1192 287° West 288 331 11,100 2,400 Climbing Chicago Center
07:33PM 41.8064 -88.2250 287° West 299 344 13,000 2,340 Climbing Chicago Center
07:34PM 41.8378 -88.3469 289° West 343 395 15,900 2,520 Climbing Chicago Center
07:35PM 41.8844 -88.4625 299° West 357 411 18,200 1,980 Climbing Chicago Center
07:36PM 41.9358 -88.5886 299° West 384 442 20,100 2,160 Climbing Chicago Center
07:37PM 41.9753 -88.7625 287° West 412 474 22,700 2,160 Climbing Chicago Center
07:38PM 42.0022 -88.9136 284° West 419 482 24,600 1,740 Climbing Chicago Center
07:39PM 42.0319 -89.0686 285° West 430 495 26,300 1,440 Climbing Chicago Center
07:40PM 42.0475 -89.2328 277° West 463 533 27,600 1,260 Climbing Chicago Center
07:41PM 42.0500 -89.4014 271° West 462 532 29,000 1,320 Climbing Chicago Center
07:42PM 42.0561 -89.5703 273° West 461 531 30,400 1,500 Climbing Chicago Center
07:43PM 42.0656 -89.7750 274° West 463 533 32,100 1,560 Climbing Chicago Center
07:44PM 42.0739 -89.9447 274° West 471 542 33,600 1,320 Climbing Chicago Center
07:45PM 42.0878 -90.1133 276° West 461 531 34,900 1,140 Climbing Chicago Center
07:46PM 42.1136 -90.2786 282° West 458 527 36,000 480 Climbing Chicago Center
07:47PM 42.1375 -90.4439 281° West 454 522 36,000 540 Level Chicago Center
07:48PM 42.1647 -90.6428 281° West 455 524 37,200 960 Climbing Chicago Center
07:50PM 42.1869 -90.8058 280° West 448 516 38,000 360 Climbing Chicago Center
07:51PM 42.2100 -90.9675 281° West 444 511 38,000  Level Chicago Center
07:52PM 42.2306 -91.1289 280° West 439 505 38,000  Level Chicago Center
07:53PM 42.2525 -91.2897 280° West 438 504 38,000  Level Chicago Center
07:54PM 42.2731 -91.4519 280° West 440 506 38,000  Level Chicago Center
07:55PM 42.2950 -91.6111 281° West 436 502 38,000  Level Chicago Center
07:56PM 42.3192 -91.8053 280° West 437 503 38,000  Level Chicago Center
07:57PM 42.3394 -91.9678 280° West 440 506 38,000  Level Chicago Center
07:58PM 42.3617 -92.1308 281° West 441 507 38,000  Level Chicago Center
07:59PM 42.3800 -92.2953 279° West 443 510 38,000  Level Chicago Center
08:00PM 42.3842 -92.4628 272° West 449 517 38,000  Level Chicago Center
08:01PM 42.3906 -92.6622 273° West 444 511 38,000  Level Minneapolis Center
08:02PM 42.3950 -92.7939 273° West 444 511 38,000  Level Minneapolis Center
08:03PM 42.3997 -92.9922 272° West 443 510 38,000  Level Chicago Center
08:04PM 42.3911 -93.1550 266° West 437 503 38,000  Level Minneapolis Center
08:05PM 42.3811 -93.3175 265° West 439 505 38,000  Level Minneapolis Center
08:06PM 42.3717 -93.4789 266° West 438 504 38,000  Level Minneapolis Center
08:07PM 42.3592 -93.6736 265° West 439 505 38,000  Level Minneapolis Center
08:08PM 42.3461 -93.8317 264° West 430 495 38,000  Level Minneapolis Center
08:09PM 42.3333 -93.9917 264° West 433 498 38,000  Level Minneapolis Center
08:10PM 42.3211 -94.1497 264° West 429 494 38,000  Level Minneapolis Center
08:11PM 42.3192 -94.3528 269° West 429 494 38,000  Level Minneapolis Center
08:12PM 42.3133 -94.5111 267° West 424 488 38,000  Level Minneapolis Center
08:13PM 42.3078 -94.6683 267° West 421 484 38,000  Level Minneapolis Center
08:14PM 42.3025 -94.8281 267° West 427 491 38,000  Level Minneapolis Center
08:15PM 42.2933 -94.9853 266° West 423 487 38,000  Level Minneapolis Center
08:16PM 42.2819 -95.1719 265° West 418 481 38,000  Level Minneapolis Center
08:17PM 42.2700 -95.3247 264° West 414 476 38,000  Level Minneapolis Center
08:18PM 42.2631 -95.4808 267° West 417 480 38,000  Level Minneapolis Center
08:20PM 42.2628 -95.6392 270° West 422 486 38,000  Level Minneapolis Center
08:21PM 42.2603 -95.7933 269° West 416 479 38,000  Level Minneapolis Center
08:22PM 42.2583 -95.9472 269° West 413 475 38,000  Level Minneapolis Center
08:23PM 42.2558 -96.1008 269° West 412 474 38,000  Level Minneapolis Center
08:24PM 42.2536 -96.2547 269° West 412 474 38,000  Level Minneapolis Center
08:25PM 42.2500 -96.4428 269° West 416 479 38,000  Level Minneapolis Center
08:26PM 42.2464 -96.5978 268° West 417 480 38,000  Level Minneapolis Center
08:27PM 42.2436 -96.7500 269° West 411 473 38,000  Level Minneapolis Center
08:28PM 42.2394 -96.8719 267° West 408 470 38,000  Level Minneapolis Center
08:29PM 42.2364 -97.0608 269° West 418 481 38,000  Level Minneapolis Center
08:30PM 42.2314 -97.2192 268° West 423 487 38,000  Level Minneapolis Center
08:31PM 42.2269 -97.3764 268° West 421 484 38,000  Level Minneapolis Center
08:32PM 42.2217 -97.5325 267° West 420 483 38,000  Level Minneapolis Center
08:33PM 42.2225 -97.7492 270° West 415 478 38,000  Level Minneapolis Center
08:34PM 42.2303 -97.8947 274° West 415 478 38,000  Level Minneapolis Center
08:35PM 42.2381 -98.0481 274° West 414 476 38,000  Level Minneapolis Center
08:36PM 42.2453 -98.1989 274° West 407 468 38,000  Level Minneapolis Center
08:37PM 42.2531 -98.3517 274° West 409 471 38,000  Level Minneapolis Center
08:38PM 42.2639 -98.5353 275° West 410 472 38,000  Level Minneapolis Center
08:39PM 42.2489 -98.6561 261° West 411 473 38,000  Level Denver Center
08:40PM 42.2131 -98.7975 251° West 403 464 38,000  Level Denver Center
08:41PM 42.1722 -98.9692 252° West 402 463 38,000  Level Denver Center
08:42PM 42.1364 -99.1119 251° West 403 464 38,000  Level Denver Center
08:43PM 42.1011 -99.2553 252° West 405 466 38,000  Level Denver Center
08:44PM 42.0653 -99.3994 252° West 406 467 38,000  Level Denver Center
08:45PM 42.0286 -99.5436 251° West 409 471 38,000  Level Denver Center
08:46PM 41.9919 -99.6906 251° West 414 476 38,000  Level Denver Center
08:47PM 41.9508 -99.8511 251° West 418 481 38,000  Level Denver Center
08:48PM 41.9136 -99.9939 251° West 422 486 38,000  Level Denver Center
08:49PM 41.8711 -100.1614 251° West 425 489 38,000  Level Denver Center
08:50PM 41.8342 -100.3050 251° West 426 490 38,000  Level Denver Center
08:51PM 41.7525 -100.4444 232° Southwest 436 502 38,000  Level Denver Center
08:52PM 41.6747 -100.5536 226° Southwest 427 491 38,000  Level Denver Center
08:53PM 41.5969 -100.6636 227° Southwest 426 490 38,000  Level Denver Center
08:54PM 41.5083 -100.7872 226° Southwest 416 479 38,000  Level Denver Center
08:55PM 41.4314 -100.8942 226° Southwest 418 481 38,000  Level Denver Center
08:57PM 41.3425 -101.0175 226° Southwest 416 479 38,000  Level Denver Center
08:58PM 41.2672 -101.1242 227° Southwest 417 480 38,000  Level Denver Center
08:59PM 41.1786 -101.2456 226° Southwest 414 476 38,000  Level Denver Center
09:00PM 41.1031 -101.3492 226° Southwest 411 473 38,000  Level Denver Center
09:01PM 41.0142 -101.4700 226° Southwest 412 474 38,000  Level Denver Center
09:02PM 40.9389 -101.5739 226° Southwest 411 473 38,000  Level Denver Center
09:03PM 40.8633 -101.6764 226° Southwest 408 470 38,000  Level Denver Center
09:04PM 40.7753 -101.7958 226° Southwest 408 470 38,000  Level Denver Center
09:05PM 40.6978 -101.9003 226° Southwest 413 475 38,000  Level Denver Center
09:06PM 40.6072 -102.0206 225° Southwest 415 478 38,000  Level Denver Center
09:07PM 40.5311 -102.1222 225° Southwest 409 471 38,000  Level Denver Center
09:08PM 40.4558 -102.2236 226° Southwest 406 467 38,000  Level Denver Center
09:09PM 40.3681 -102.3392 225° Southwest 402 463 38,000  Level Denver Center
09:10PM 40.2925 -102.4397 225° Southwest 403 464 38,000  Level Denver Center
09:11PM 40.2039 -102.5575 225° Southwest 408 470 38,000  Level Denver Center
09:12PM 40.1217 -102.6656 225° Southwest 434 499 38,000  Level Denver Center
09:13PM 40.0381 -102.7714 224° Southwest 433 498 38,000  Level Denver Center
09:14PM 39.9539 -102.8822 225° Southwest 430 495 38,000  Level Denver Center
09:15PM 39.8519 -103.0147 225° Southwest 432 497 38,000  Level Denver Center
09:16PM 39.7694 -103.1228 225° Southwest 423 487 38,000  Level Denver Center
09:17PM 39.7028 -103.2442 235° Southwest 419 482 38,000  Level Denver Center
09:18PM 39.7144 -103.3972 276° West 423 487 38,000  Level Denver Center
09:19PM 39.7292 -103.5506 277° West 427 491 38,000  Level Denver Center
09:20PM 39.7431 -103.7044 277° West 431 496 38,000  Level Denver Center
09:21PM 39.7583 -103.8650 277° West 440 506 38,000  Level Denver Center
09:22PM 39.7728 -104.0242 277° West 441 507 38,000  Level Denver Center
09:23PM 39.7883 -104.2147 276° West 440 506 38,000  Level Denver Center
09:24PM 39.8017 -104.3706 276° West 436 502 38,000  Level Denver Center
09:25PM 39.8144 -104.5261 276° West 436 502 38,000  Level Denver Center
09:26PM 39.8281 -104.6767 277° West 429 494 38,000  Level Denver Center
09:27PM 39.8392 -104.8244 276° West 422 486 38,000  Level Denver Center
09:28PM 39.8503 -104.9764 275° West 430 495 38,000  Level Denver Center
09:29PM 39.8642 -105.1575 276° West 424 488 38,000  Level Denver Center
09:30PM 39.8756 -105.3125 276° West 431 496 38,000  Level Denver Center
09:31PM 39.8869 -105.4642 276° West 423 487 38,000  Level Denver Center
09:32PM 39.8992 -105.6172 276° West 421 484 38,000  Level Denver Center
09:33PM 39.9097 -105.7669 275° West 412 474 38,000  Level Denver Center
09:34PM 39.9208 -105.9147 276° West 404 465 38,000  Level Denver Center
09:35PM 39.9317 -106.0644 275° West 415 478 38,000  Level Denver Center
09:36PM 39.9447 -106.2433 275° West 414 476 38,000  Level Denver Center
09:37PM 39.9536 -106.3928 274° West 414 476 38,000  Level Denver Center
09:39PM 39.9656 -106.5500 276° West 417 480 38,000  Level Denver Center
09:40PM 39.9733 -106.6936 274° West 417 480 38,000  Level Denver Center
09:41PM 39.9839 -106.8406 275° West 424 488 38,000 -60 Level Denver Center
09:42PM 39.9933 -107.0111 274° West 423 487 37,900 -540 Descending Denver Center
09:43PM 40.0044 -107.1575 276° West 425 489 37,000 -840 Descending Denver Center
09:44PM 40.0131 -107.3278 274° West 423 487 36,300 -540 Descending Denver Center
09:45PM 40.0219 -107.4700 275° West 413 475 36,000 -180 Descending Denver Center
09:46PM 40.0300 -107.6067 274° West 400 460 36,000  Level Denver Center
09:47PM 40.0381 -107.7642 274° West 391 450 36,000  Level Denver Center
09:48PM 40.0456 -107.9000 274° West 392 451 36,000  Level Denver Center
09:49PM 40.0536 -108.0553 274° West 387 445 36,000  Level Denver Center
09:50PM 40.0603 -108.1900 274° West 389 448 36,000  Level Denver Center
09:51PM 40.0675 -108.3264 274° West 395 455 36,000  Level Denver Center
09:52PM 40.0753 -108.4858 274° West 396 456 36,000  Level Denver Center
09:53PM 40.0822 -108.6236 274° West 400 460 36,000  Level Denver Center
09:54PM 40.0894 -108.7856 273° West 402 463 36,000  Level Denver Center
09:55PM 40.0953 -108.9253 273° West 404 465 36,000  Level Denver Center
09:56PM 40.1028 -109.0844 274° West 398 458 36,000  Level Denver Center
09:57PM 40.1086 -109.2194 273° West 392 451 36,000  Level Denver Center
09:58PM 40.1142 -109.3764 273° West 390 449 36,000  Level Denver Center
09:59PM 40.1200 -109.5108 273° West 390 449 36,000  Level Denver Center
10:00PM 40.1250 -109.6464 273° West 391 450 36,000  Level Denver Center
10:01PM 40.1314 -109.8039 273° West 390 449 36,000  Level Denver Center
10:02PM 40.1367 -109.9372 273° West 385 443 36,000  Level Denver Center
10:03PM 40.1419 -110.0919 273° West 382 440 36,000  Level Denver Center
10:04PM 40.1461 -110.2231 272° West 380 437 36,000  Level Denver Center
10:05PM 40.1525 -110.3978 273° West 379 436 36,000  Level Salt Lake Center
10:06PM 40.1572 -110.5528 272° West 382 440 36,000  Level Salt Lake Center
10:07PM 40.1608 -110.6839 272° West 380 437 36,000  Level Salt Lake Center
10:08PM 40.1644 -110.8178 272° West 384 442 36,000  Level Salt Lake Center
10:09PM 40.1692 -110.9642 272° West 385 443 36,000  Level Salt Lake Center
10:11PM 40.1733 -111.1061 272° West 390 449 36,000  Level Salt Lake Center
10:12PM 40.1764 -111.2456 272° West 386 444 36,000  Level Salt Lake Center
10:13PM 40.1794 -111.3883 272° West 390 449 36,000  Level Salt Lake Center
10:14PM 40.1822 -111.5272 272° West 382 440 36,000  Level Salt Lake Center
10:15PM 40.1869 -111.6969 272° West 389 448 36,000  Level Salt Lake Center
10:16PM 40.1883 -111.8400 271° West 396 456 36,000  Level Salt Lake Center
10:17PM 40.1919 -111.9786 272° West 383 441 36,000  Level Salt Lake Center
10:18PM 40.1950 -112.1186 272° West 383 441 36,000  Level Salt Lake Center
10:19PM 40.1975 -112.2592 271° West 385 443 36,000  Level Salt Lake Center
10:20PM 40.2003 -112.4019 272° West 390 449 36,000  Level Salt Lake Center
10:21PM 40.2025 -112.5431 271° West 388 447 36,000  Level Salt Lake Center
10:22PM 40.2039 -112.6836 271° West 386 444 36,000  Level Salt Lake Center
10:23PM 40.2072 -112.8267 272° West 392 451 36,000  Level Salt Lake Center
10:24PM 40.2083 -112.9686 271° West 394 453 36,000  Level Salt Lake Center
10:25PM 40.2064 -113.1053 269° West 375 432 36,000  Level Salt Lake Center
10:26PM 40.2083 -113.2761 271° West 391 450 36,000  Level Salt Lake Center
10:27PM 40.2092 -113.4178 270° West 391 450 36,000  Level Salt Lake Center
10:28PM 40.2103 -113.5600 271° West 392 451 36,000  Level Salt Lake Center
10:29PM 40.2103 -113.7036 270° West 395 455 36,000  Level Salt Lake Center
10:30PM 40.2108 -113.8458 270° West 394 453 36,000  Level Salt Lake Center
10:31PM 40.2119 -113.9900 271° West 397 457 36,000  Level Salt Lake Center
10:32PM 40.2122 -114.1336 270° West 396 456 36,000  Level Salt Lake Center
10:33PM 40.2125 -114.2764 270° West 395 455 36,000  Level Salt Lake Center
10:34PM 40.2117 -114.4211 270° West 399 459 36,000  Level Salt Lake Center
10:35PM 40.2119 -114.5947 270° West 399 459 36,000  Level Salt Lake Center
10:36PM 40.2103 -114.7400 269° West 400 460 36,000  Level Salt Lake Center
10:37PM 40.2097 -114.8711 270° West 400 460 36,000  Level Salt Lake Center
10:38PM 40.2094 -115.0314 270° West 396 456 36,000  Level Salt Lake Center
10:39PM 40.2072 -115.1689 269° West 395 455 36,000  Level Salt Lake Center
10:40PM 40.2081 -115.3292 270° West 395 455 36,000  Level Salt Lake Center
10:41PM 40.2039 -115.4672 268° West 397 457 36,000  Level Salt Lake Center
10:42PM 40.2036 -115.6036 270° West 394 453 36,000  Level Salt Lake Center
10:43PM 40.2008 -115.7658 269° West 397 457 36,000  Level Salt Lake Center
10:44PM 40.1958 -115.9042 267° West 398 458 36,000  Level Salt Lake Center
10:45PM 40.1939 -116.0431 269° West 397 457 36,000  Level Salt Lake Center
10:46PM 40.1919 -116.2053 269° West 399 459 36,000  Level Salt Lake Center
10:47PM 40.1889 -116.3447 268° West 399 459 36,000  Level Salt Lake Center
10:48PM 40.1853 -116.5075 268° West 399 459 36,000  Level Salt Lake Center
10:49PM 40.1825 -116.6472 269° West 399 459 36,000  Level Salt Lake Center
10:50PM 40.1789 -116.7881 268° West 400 460 36,000  Level Salt Lake Center
10:51PM 40.1758 -116.9294 268° West 402 463 36,000  Level Salt Lake Center
10:52PM 40.1717 -117.0933 268° West 400 460 36,000  Level Salt Lake Center
10:53PM 40.1681 -117.2331 268° West 400 460 36,000  Level Salt Lake Center
10:54PM 40.1642 -117.3956 268° West 399 459 36,000  Level Salt Lake Center
10:55PM 40.1597 -117.5350 268° West 401 461 36,000  Level Salt Lake Center
10:56PM 40.1556 -117.6756 268° West 403 464 36,000  Level Salt Lake Center
10:57PM 40.1506 -117.8386 268° West 402 463 36,000  Level Salt Lake Center
10:59PM 40.1458 -117.9783 268° West 403 464 36,000  Level Salt Lake Center
11:00PM 40.1414 -118.1181 268° West 402 463 36,000 -240 Level Salt Lake Center
11:01PM 40.0842 -118.2628 243° Southwest 410 472 35,600 -1,740 Descending Salt Lake Center
11:02PM 40.0136 -118.3839 233° Southwest 409 471 32,500 -3,360 Descending Salt Lake Center
11:03PM 39.9419 -118.5042 232° Southwest 418 481 28,800 -3,300 Descending Salt Lake Center
11:04PM 39.8694 -118.6281 233° Southwest 429 494 25,900 -2,700 Descending Salt Lake Center
11:05PM 39.7981 -118.7472 232° Southwest 423 487 23,400 -2,520 Descending Salt Lake Center
11:06PM 39.7300 -118.8608 232° Southwest 407 468 20,800 -2,400 Descending Salt Lake Center
11:07PM 39.6642 -118.9711 232° Southwest 393 452 18,500 -2,100 Descending Salt Lake Center
11:08PM 39.5742 -119.1217 232° Southwest 381 438 16,000 -1,860 Descending Oakland Center
11:09PM 39.5239 -119.2344 240° Southwest 365 420 14,200 -2,220 Descending Oakland Center
11:10PM 39.4811 -119.3478 244° Southwest 355 409 11,600 -1,920 Descending Oakland Center
11:11PM 39.4417 -119.4589 245° Southwest 349 402 10,400 -840 Descending Oakland Center
11:12PM 39.4050 -119.5544 244° Southwest 322 371 9,900 -600 Descending Oakland Center
11:13PM 39.3719 -119.6383 243° Southwest 286 329 9,300 -720 Descending Oakland Center
11:14PM 39.3578 -119.7200 257° West 261 300 8,500 -660 Descending Oakland Center
11:15PM 39.3758 -119.7903 288° West 235 270 8,000 -1,440 Descending Oakland Center
11:16PM 39.4500 -119.7667 14° North 152 175 5,400 -2,160 Descending Northern Cal TRACON
11:18PM 39.4833 -119.7667 322° Northwest  Level FlightAware Approximate
11:25PM 39.4991 -119.7681 322° Northwest  Level Estimated
11:26PM 39.4991 -119.7681 322° Northwest  Level Estimated